sensor_id;sensor_type;location;lat;lon;timestamp;temperature;humidity
54518;DHT22;40423;53.176;6.002;2022-07-29T00:01:24;15.30;99.90
54518;DHT22;40423;53.176;6.002;2022-07-29T00:03:56;15.20;99.90
54518;DHT22;40423;53.176;6.002;2022-07-29T00:06:29;14.60;99.90
54518;DHT22;40423;53.176;6.002;2022-07-29T00:08:57;15.10;99.90
54518;DHT22;40423;53.176;6.002;2022-07-29T00:17:21;15.30;99.90
54518;DHT22;40423;53.176;6.002;2022-07-29T00:20:09;15.30;99.90
54518;DHT22;40423;53.176;6.002;2022-07-29T00:23:00;15.30;99.90
54518;DHT22;40423;53.176;6.002;2022-07-29T00:25:45;15.30;99.90
54518;DHT22;40423;53.176;6.002;2022-07-29T00:28:26;15.30;99.90
54518;DHT22;40423;53.176;6.002;2022-07-29T00:31:00;15.30;99.90
54518;DHT22;40423;53.176;6.002;2022-07-29T00:33:51;15.40;99.90
54518;DHT22;40423;53.176;6.002;2022-07-29T00:36:31;14.90;99.90
54518;DHT22;40423;53.176;6.002;2022-07-29T00:39:05;15.60;99.90
54518;DHT22;40423;53.176;6.002;2022-07-29T00:42:07;15.40;99.90
54518;DHT22;40423;53.176;6.002;2022-07-29T00:44:53;15.40;99.90
54518;DHT22;40423;53.176;6.002;2022-07-29T00:47:51;14.80;99.90
54518;DHT22;40423;53.176;6.002;2022-07-29T00:50:25;15.40;99.90
54518;DHT22;40423;53.176;6.002;2022-07-29T00:53:01;15.40;99.90
54518;DHT22;40423;53.176;6.002;2022-07-29T00:55:31;15.30;99.90
54518;DHT22;40423;53.176;6.002;2022-07-29T00:58:00;14.50;99.90
54518;DHT22;40423;53.176;6.002;2022-07-29T01:01:10;15.40;99.90
54518;DHT22;40423;53.176;6.002;2022-07-29T01:07:04;15.40;99.90
54518;DHT22;40423;53.176;6.002;2022-07-29T01:09:48;15.40;99.90
54518;DHT22;40423;53.176;6.002;2022-07-29T01:12:37;15.30;99.90
54518;DHT22;40423;53.176;6.002;2022-07-29T01:15:07;15.30;99.90
54518;DHT22;40423;53.176;6.002;2022-07-29T01:18:00;15.30;99.90
54518;DHT22;40423;53.176;6.002;2022-07-29T01:21:07;15.40;99.90
54518;DHT22;40423;53.176;6.002;2022-07-29T01:23:48;15.30;99.90
54518;DHT22;40423;53.176;6.002;2022-07-29T01:26:47;14.70;99.90
54518;DHT22;40423;53.176;6.002;2022-07-29T01:29:38;15.40;99.90
54518;DHT22;40423;53.176;6.002;2022-07-29T01:32:48;15.30;99.90
54518;DHT22;40423;53.176;6.002;2022-07-29T01:38:38;15.30;99.90
54518;DHT22;40423;53.176;6.002;2022-07-29T01:45:21;14.40;99.90
54518;DHT22;40423;53.176;6.002;2022-07-29T01:58:26;15.40;99.90
54518;DHT22;40423;53.176;6.002;2022-07-29T02:01:06;15.40;99.90
54518;DHT22;40423;53.176;6.002;2022-07-29T02:04:12;15.40;99.90
54518;DHT22;40423;53.176;6.002;2022-07-29T02:07:13;15.50;99.90
54518;DHT22;40423;53.176;6.002;2022-07-29T02:10:20;15.40;99.90
54518;DHT22;40423;53.176;6.002;2022-07-29T02:13:19;15.30;99.90
54518;DHT22;40423;53.176;6.002;2022-07-29T02:18:41;15.40;99.90
54518;DHT22;40423;53.176;6.002;2022-07-29T02:21:10;15.50;99.90
54518;DHT22;40423;53.176;6.002;2022-07-29T02:23:37;15.50;99.90
54518;DHT22;40423;53.176;6.002;2022-07-29T02:26:04;15.50;99.90
54518;DHT22;40423;53.176;6.002;2022-07-29T02:28:32;15.50;99.90
54518;DHT22;40423;53.176;6.002;2022-07-29T02:31:01;15.50;99.90
54518;DHT22;40423;53.176;6.002;2022-07-29T02:33:28;15.50;99.90
54518;DHT22;40423;53.176;6.002;2022-07-29T02:35:56;15.50;99.90
54518;DHT22;40423;53.176;6.002;2022-07-29T02:38:24;15.50;99.90
54518;DHT22;40423;53.176;6.002;2022-07-29T02:41:12;15.50;99.90
54518;DHT22;40423;53.176;6.002;2022-07-29T02:43:40;15.50;99.90
54518;DHT22;40423;53.176;6.002;2022-07-29T02:46:13;15.50;99.90
54518;DHT22;40423;53.176;6.002;2022-07-29T02:48:51;15.50;99.90
54518;DHT22;40423;53.176;6.002;2022-07-29T02:51:23;15.50;99.90
54518;DHT22;40423;53.176;6.002;2022-07-29T02:53:53;15.50;99.90
54518;DHT22;40423;53.176;6.002;2022-07-29T02:56:25;15.50;99.90
54518;DHT22;40423;53.176;6.002;2022-07-29T02:58:59;15.50;99.90
54518;DHT22;40423;53.176;6.002;2022-07-29T03:01:31;15.50;99.90
54518;DHT22;40423;53.176;6.002;2022-07-29T03:04:01;15.50;99.90
54518;DHT22;40423;53.176;6.002;2022-07-29T03:06:28;15.50;99.90
54518;DHT22;40423;53.176;6.002;2022-07-29T03:08:56;15.50;99.90
54518;DHT22;40423;53.176;6.002;2022-07-29T03:11:23;15.50;99.90
54518;DHT22;40423;53.176;6.002;2022-07-29T03:13:49;15.50;99.90
54518;DHT22;40423;53.176;6.002;2022-07-29T03:16:15;15.50;99.90
54518;DHT22;40423;53.176;6.002;2022-07-29T03:18:41;15.50;99.90
54518;DHT22;40423;53.176;6.002;2022-07-29T03:21:08;15.50;99.90
54518;DHT22;40423;53.176;6.002;2022-07-29T03:23:33;15.50;99.90
54518;DHT22;40423;53.176;6.002;2022-07-29T03:25:59;15.50;99.90
54518;DHT22;40423;53.176;6.002;2022-07-29T03:28:26;15.50;99.90
54518;DHT22;40423;53.176;6.002;2022-07-29T03:30:53;15.50;99.90
54518;DHT22;40423;53.176;6.002;2022-07-29T03:33:19;15.50;99.90
54518;DHT22;40423;53.176;6.002;2022-07-29T03:35:44;15.50;99.90
54518;DHT22;40423;53.176;6.002;2022-07-29T03:38:10;15.50;99.90
54518;DHT22;40423;53.176;6.002;2022-07-29T03:40:43;15.50;99.90
54518;DHT22;40423;53.176;6.002;2022-07-29T03:43:11;15.50;99.90
54518;DHT22;40423;53.176;6.002;2022-07-29T03:45:39;15.50;99.90
54518;DHT22;40423;53.176;6.002;2022-07-29T03:48:09;15.50;99.90
54518;DHT22;40423;53.176;6.002;2022-07-29T03:50:35;15.50;99.90
54518;DHT22;40423;53.176;6.002;2022-07-29T03:53:02;15.50;99.90
54518;DHT22;40423;53.176;6.002;2022-07-29T03:55:30;15.50;99.90
54518;DHT22;40423;53.176;6.002;2022-07-29T03:57:58;15.50;99.90
54518;DHT22;40423;53.176;6.002;2022-07-29T04:00:26;15.50;99.90
54518;DHT22;40423;53.176;6.002;2022-07-29T04:02:52;15.50;99.90
54518;DHT22;40423;53.176;6.002;2022-07-29T04:05:19;15.50;99.90
54518;DHT22;40423;53.176;6.002;2022-07-29T04:07:46;15.50;99.90
54518;DHT22;40423;53.176;6.002;2022-07-29T04:10:12;15.50;99.90
54518;DHT22;40423;53.176;6.002;2022-07-29T04:12:38;15.50;99.90
54518;DHT22;40423;53.176;6.002;2022-07-29T04:15:04;15.50;99.90
54518;DHT22;40423;53.176;6.002;2022-07-29T04:17:30;15.50;99.90
54518;DHT22;40423;53.176;6.002;2022-07-29T04:19:56;15.50;99.90
54518;DHT22;40423;53.176;6.002;2022-07-29T04:22:22;15.50;99.90
54518;DHT22;40423;53.176;6.002;2022-07-29T04:24:47;15.60;99.90
54518;DHT22;40423;53.176;6.002;2022-07-29T04:27:13;15.50;99.90
54518;DHT22;40423;53.176;6.002;2022-07-29T04:29:39;15.50;99.90
54518;DHT22;40423;53.176;6.002;2022-07-29T04:32:05;15.50;99.90
54518;DHT22;40423;53.176;6.002;2022-07-29T04:34:31;15.50;99.90
54518;DHT22;40423;53.176;6.002;2022-07-29T04:36:56;15.50;99.90
54518;DHT22;40423;53.176;6.002;2022-07-29T04:39:22;15.50;99.90
54518;DHT22;40423;53.176;6.002;2022-07-29T04:41:48;15.50;99.90
54518;DHT22;40423;53.176;6.002;2022-07-29T04:44:14;15.50;99.90
54518;DHT22;40423;53.176;6.002;2022-07-29T04:46:40;15.50;99.90
54518;DHT22;40423;53.176;6.002;2022-07-29T04:49:06;15.50;99.90
54518;DHT22;40423;53.176;6.002;2022-07-29T04:51:31;15.50;99.90
54518;DHT22;40423;53.176;6.002;2022-07-29T04:53:57;15.60;99.90
54518;DHT22;40423;53.176;6.002;2022-07-29T04:56:23;15.60;99.90
54518;DHT22;40423;53.176;6.002;2022-07-29T04:58:49;15.60;99.90
54518;DHT22;40423;53.176;6.002;2022-07-29T05:01:14;15.60;99.90
54518;DHT22;40423;53.176;6.002;2022-07-29T05:03:40;15.60;99.90
54518;DHT22;40423;53.176;6.002;2022-07-29T05:06:06;15.60;99.90
54518;DHT22;40423;53.176;6.002;2022-07-29T05:08:31;15.60;99.90
54518;DHT22;40423;53.176;6.002;2022-07-29T05:10:57;15.60;99.90
54518;DHT22;40423;53.176;6.002;2022-07-29T05:13:23;15.70;99.90
54518;DHT22;40423;53.176;6.002;2022-07-29T05:15:49;15.60;99.90
54518;DHT22;40423;53.176;6.002;2022-07-29T05:18:15;15.70;99.90
54518;DHT22;40423;53.176;6.002;2022-07-29T05:20:41;15.60;99.90
54518;DHT22;40423;53.176;6.002;2022-07-29T05:23:07;15.60;99.90
54518;DHT22;40423;53.176;6.002;2022-07-29T05:25:32;15.70;99.90
54518;DHT22;40423;53.176;6.002;2022-07-29T05:27:58;15.70;99.90
54518;DHT22;40423;53.176;6.002;2022-07-29T05:30:24;15.70;99.90
54518;DHT22;40423;53.176;6.002;2022-07-29T05:32:50;15.70;99.90
54518;DHT22;40423;53.176;6.002;2022-07-29T05:35:16;15.70;99.90
54518;DHT22;40423;53.176;6.002;2022-07-29T05:37:42;15.80;99.90
54518;DHT22;40423;53.176;6.002;2022-07-29T05:40:08;15.80;99.90
54518;DHT22;40423;53.176;6.002;2022-07-29T05:42:34;15.80;99.90
54518;DHT22;40423;53.176;6.002;2022-07-29T05:45:00;15.80;99.90
54518;DHT22;40423;53.176;6.002;2022-07-29T05:47:27;15.80;99.90
54518;DHT22;40423;53.176;6.002;2022-07-29T05:49:52;15.90;99.90
54518;DHT22;40423;53.176;6.002;2022-07-29T05:52:19;15.90;99.90
54518;DHT22;40423;53.176;6.002;2022-07-29T05:54:45;16.00;99.90
54518;DHT22;40423;53.176;6.002;2022-07-29T05:57:22;16.10;99.90
54518;DHT22;40423;53.176;6.002;2022-07-29T05:59:49;16.20;99.90
54518;DHT22;40423;53.176;6.002;2022-07-29T06:02:15;16.20;99.90
54518;DHT22;40423;53.176;6.002;2022-07-29T06:04:41;16.20;99.90
54518;DHT22;40423;53.176;6.002;2022-07-29T06:07:07;16.30;99.90
54518;DHT22;40423;53.176;6.002;2022-07-29T06:09:33;16.30;99.90
54518;DHT22;40423;53.176;6.002;2022-07-29T06:11:59;16.30;99.90
54518;DHT22;40423;53.176;6.002;2022-07-29T06:14:25;16.30;99.90
54518;DHT22;40423;53.176;6.002;2022-07-29T06:16:52;16.30;99.90
54518;DHT22;40423;53.176;6.002;2022-07-29T06:19:18;16.40;99.90
54518;DHT22;40423;53.176;6.002;2022-07-29T06:21:45;16.40;99.90
54518;DHT22;40423;53.176;6.002;2022-07-29T06:24:12;16.50;99.90
54518;DHT22;40423;53.176;6.002;2022-07-29T06:26:38;16.60;99.90
54518;DHT22;40423;53.176;6.002;2022-07-29T06:29:04;16.70;99.90
54518;DHT22;40423;53.176;6.002;2022-07-29T06:31:30;16.80;99.90
54518;DHT22;40423;53.176;6.002;2022-07-29T06:33:56;16.90;99.90
54518;DHT22;40423;53.176;6.002;2022-07-29T06:36:22;16.90;99.90
54518;DHT22;40423;53.176;6.002;2022-07-29T06:38:47;17.00;99.90
54518;DHT22;40423;53.176;6.002;2022-07-29T06:41:13;17.10;99.90
54518;DHT22;40423;53.176;6.002;2022-07-29T06:43:42;17.20;99.90
54518;DHT22;40423;53.176;6.002;2022-07-29T06:46:10;17.30;99.90
54518;DHT22;40423;53.176;6.002;2022-07-29T06:48:37;17.40;99.90
54518;DHT22;40423;53.176;6.002;2022-07-29T06:51:03;17.50;99.90
54518;DHT22;40423;53.176;6.002;2022-07-29T06:53:30;17.70;99.90
54518;DHT22;40423;53.176;6.002;2022-07-29T06:55:56;17.70;99.90
54518;DHT22;40423;53.176;6.002;2022-07-29T06:58:23;17.80;99.90
54518;DHT22;40423;53.176;6.002;2022-07-29T07:00:49;17.80;99.90
54518;DHT22;40423;53.176;6.002;2022-07-29T07:03:16;17.80;99.90
54518;DHT22;40423;53.176;6.002;2022-07-29T07:05:42;17.80;99.90
54518;DHT22;40423;53.176;6.002;2022-07-29T07:08:09;17.80;99.90
54518;DHT22;40423;53.176;6.002;2022-07-29T07:10:34;17.80;99.90
54518;DHT22;40423;53.176;6.002;2022-07-29T07:13:00;17.80;99.90
54518;DHT22;40423;53.176;6.002;2022-07-29T07:15:27;17.80;99.90
54518;DHT22;40423;53.176;6.002;2022-07-29T07:17:53;17.80;99.90
54518;DHT22;40423;53.176;6.002;2022-07-29T07:20:19;17.80;99.90
54518;DHT22;40423;53.176;6.002;2022-07-29T07:22:45;17.80;99.90
54518;DHT22;40423;53.176;6.002;2022-07-29T07:25:13;17.90;99.90
54518;DHT22;40423;53.176;6.002;2022-07-29T07:27:38;17.90;99.90
54518;DHT22;40423;53.176;6.002;2022-07-29T07:30:05;18.00;99.90
54518;DHT22;40423;53.176;6.002;2022-07-29T07:32:32;18.10;99.90
54518;DHT22;40423;53.176;6.002;2022-07-29T07:34:58;18.20;99.90
54518;DHT22;40423;53.176;6.002;2022-07-29T07:37:25;18.30;99.90
54518;DHT22;40423;53.176;6.002;2022-07-29T07:39:51;18.30;99.90
54518;DHT22;40423;53.176;6.002;2022-07-29T07:42:18;18.30;99.90
54518;DHT22;40423;53.176;6.002;2022-07-29T07:44:43;18.30;99.90
54518;DHT22;40423;53.176;6.002;2022-07-29T07:47:11;18.20;99.90
54518;DHT22;40423;53.176;6.002;2022-07-29T07:49:38;18.30;99.90
54518;DHT22;40423;53.176;6.002;2022-07-29T07:52:04;18.30;99.90
54518;DHT22;40423;53.176;6.002;2022-07-29T07:54:30;18.40;99.90
54518;DHT22;40423;53.176;6.002;2022-07-29T07:56:56;18.60;99.90
54518;DHT22;40423;53.176;6.002;2022-07-29T07:59:22;18.70;99.90
54518;DHT22;40423;53.176;6.002;2022-07-29T08:01:49;18.80;99.90
54518;DHT22;40423;53.176;6.002;2022-07-29T08:04:15;18.90;99.90
54518;DHT22;40423;53.176;6.002;2022-07-29T08:06:41;18.90;99.90
54518;DHT22;40423;53.176;6.002;2022-07-29T08:09:07;18.90;99.90
54518;DHT22;40423;53.176;6.002;2022-07-29T08:11:32;18.90;99.90
54518;DHT22;40423;53.176;6.002;2022-07-29T08:13:58;19.00;99.90
54518;DHT22;40423;53.176;6.002;2022-07-29T08:16:26;19.00;99.90
54518;DHT22;40423;53.176;6.002;2022-07-29T08:18:52;19.10;99.90
54518;DHT22;40423;53.176;6.002;2022-07-29T08:21:23;19.10;99.90
54518;DHT22;40423;53.176;6.002;2022-07-29T08:23:49;19.20;99.90
54518;DHT22;40423;53.176;6.002;2022-07-29T08:26:21;19.30;99.90
54518;DHT22;40423;53.176;6.002;2022-07-29T08:28:48;19.30;99.90
54518;DHT22;40423;53.176;6.002;2022-07-29T08:31:16;19.30;99.90
54518;DHT22;40423;53.176;6.002;2022-07-29T08:33:42;19.30;99.90
54518;DHT22;40423;53.176;6.002;2022-07-29T08:36:08;19.20;99.90
54518;DHT22;40423;53.176;6.002;2022-07-29T08:38:34;19.20;99.90
54518;DHT22;40423;53.176;6.002;2022-07-29T08:41:01;19.20;99.90
54518;DHT22;40423;53.176;6.002;2022-07-29T08:43:28;19.30;99.90
54518;DHT22;40423;53.176;6.002;2022-07-29T08:45:54;19.30;99.90
54518;DHT22;40423;53.176;6.002;2022-07-29T08:48:22;19.40;99.90
54518;DHT22;40423;53.176;6.002;2022-07-29T08:50:52;19.40;99.90
54518;DHT22;40423;53.176;6.002;2022-07-29T08:53:20;19.40;99.90
54518;DHT22;40423;53.176;6.002;2022-07-29T08:55:48;19.50;99.90
54518;DHT22;40423;53.176;6.002;2022-07-29T08:58:15;19.40;99.90
54518;DHT22;40423;53.176;6.002;2022-07-29T09:00:47;19.50;99.90
54518;DHT22;40423;53.176;6.002;2022-07-29T09:03:16;19.40;99.90
54518;DHT22;40423;53.176;6.002;2022-07-29T09:05:47;19.30;99.90
54518;DHT22;40423;53.176;6.002;2022-07-29T09:08:14;19.30;99.90
54518;DHT22;40423;53.176;6.002;2022-07-29T09:10:40;19.30;99.90
54518;DHT22;40423;53.176;6.002;2022-07-29T09:13:07;19.30;99.90
54518;DHT22;40423;53.176;6.002;2022-07-29T09:15:33;19.30;99.90
54518;DHT22;40423;53.176;6.002;2022-07-29T09:17:59;19.30;99.90
54518;DHT22;40423;53.176;6.002;2022-07-29T09:20:26;19.30;99.90
54518;DHT22;40423;53.176;6.002;2022-07-29T09:23:12;19.30;99.90
54518;DHT22;40423;53.176;6.002;2022-07-29T09:25:40;19.20;99.90
54518;DHT22;40423;53.176;6.002;2022-07-29T09:28:11;19.20;99.90
54518;DHT22;40423;53.176;6.002;2022-07-29T09:30:57;19.10;99.90
54518;DHT22;40423;53.176;6.002;2022-07-29T09:33:31;19.20;99.90
54518;DHT22;40423;53.176;6.002;2022-07-29T09:36:05;19.10;99.90
54518;DHT22;40423;53.176;6.002;2022-07-29T09:38:32;19.10;99.90
54518;DHT22;40423;53.176;6.002;2022-07-29T09:41:00;19.10;99.90
54518;DHT22;40423;53.176;6.002;2022-07-29T09:43:27;19.10;99.90
54518;DHT22;40423;53.176;6.002;2022-07-29T09:45:52;19.10;99.90
54518;DHT22;40423;53.176;6.002;2022-07-29T09:48:24;19.10;99.90
54518;DHT22;40423;53.176;6.002;2022-07-29T09:50:50;19.10;99.90
54518;DHT22;40423;53.176;6.002;2022-07-29T09:53:35;19.10;99.90
54518;DHT22;40423;53.176;6.002;2022-07-29T09:56:01;19.10;99.90
54518;DHT22;40423;53.176;6.002;2022-07-29T09:58:27;19.10;99.90
54518;DHT22;40423;53.176;6.002;2022-07-29T10:00:56;19.10;99.90
54518;DHT22;40423;53.176;6.002;2022-07-29T10:03:22;19.10;99.90
54518;DHT22;40423;53.176;6.002;2022-07-29T10:06:11;19.10;99.90
54518;DHT22;40423;53.176;6.002;2022-07-29T10:08:38;19.10;99.90
54518;DHT22;40423;53.176;6.002;2022-07-29T10:11:12;19.10;99.90
54518;DHT22;40423;53.176;6.002;2022-07-29T10:13:38;19.10;99.90
54518;DHT22;40423;53.176;6.002;2022-07-29T10:16:05;19.10;99.90
54518;DHT22;40423;53.176;6.002;2022-07-29T10:18:32;19.10;99.90
54518;DHT22;40423;53.176;6.002;2022-07-29T10:20:58;19.20;99.90
54518;DHT22;40423;53.176;6.002;2022-07-29T10:23:27;19.30;99.90
54518;DHT22;40423;53.176;6.002;2022-07-29T10:25:53;19.40;99.90
54518;DHT22;40423;53.176;6.002;2022-07-29T10:28:19;19.40;99.90
54518;DHT22;40423;53.176;6.002;2022-07-29T10:30:46;19.50;99.90
54518;DHT22;40423;53.176;6.002;2022-07-29T10:33:28;19.60;99.90
54518;DHT22;40423;53.176;6.002;2022-07-29T10:44:16;20.80;99.90
54518;DHT22;40423;53.176;6.002;2022-07-29T10:46:42;20.80;99.90
54518;DHT22;40423;53.176;6.002;2022-07-29T10:49:18;20.80;99.80
54518;DHT22;40423;53.176;6.002;2022-07-29T11:04:58;20.30;99.70
54518;DHT22;40423;53.176;6.002;2022-07-29T11:07:25;20.20;99.90
54518;DHT22;40423;53.176;6.002;2022-07-29T11:15:20;19.90;99.90
54518;DHT22;40423;53.176;6.002;2022-07-29T11:20:45;19.80;99.90
54518;DHT22;40423;53.176;6.002;2022-07-29T11:23:24;19.70;99.90
54518;DHT22;40423;53.176;6.002;2022-07-29T11:31:17;19.60;99.90
54518;DHT22;40423;53.176;6.002;2022-07-29T11:33:45;19.60;99.90
54518;DHT22;40423;53.176;6.002;2022-07-29T11:36:13;19.60;99.90
54518;DHT22;40423;53.176;6.002;2022-07-29T11:38:39;19.60;99.90
54518;DHT22;40423;53.176;6.002;2022-07-29T11:43:56;19.70;99.90
54518;DHT22;40423;53.176;6.002;2022-07-29T11:46:44;19.70;99.90
54518;DHT22;40423;53.176;6.002;2022-07-29T11:49:12;19.70;99.90
54518;DHT22;40423;53.176;6.002;2022-07-29T11:51:39;19.70;99.90
54518;DHT22;40423;53.176;6.002;2022-07-29T11:54:07;19.70;99.90
54518;DHT22;40423;53.176;6.002;2022-07-29T11:56:39;19.70;99.90
54518;DHT22;40423;53.176;6.002;2022-07-29T11:59:07;19.80;99.90
54518;DHT22;40423;53.176;6.002;2022-07-29T12:01:36;19.80;99.90
54518;DHT22;40423;53.176;6.002;2022-07-29T12:04:04;19.70;99.90
54518;DHT22;40423;53.176;6.002;2022-07-29T12:06:30;19.80;99.90
54518;DHT22;40423;53.176;6.002;2022-07-29T12:08:56;19.80;99.90
54518;DHT22;40423;53.176;6.002;2022-07-29T12:11:22;19.90;99.90
54518;DHT22;40423;53.176;6.002;2022-07-29T12:13:49;20.00;99.90
54518;DHT22;40423;53.176;6.002;2022-07-29T12:16:15;20.00;99.90
54518;DHT22;40423;53.176;6.002;2022-07-29T12:18:41;20.00;99.90
54518;DHT22;40423;53.176;6.002;2022-07-29T12:21:06;20.00;99.90
54518;DHT22;40423;53.176;6.002;2022-07-29T12:23:33;20.10;99.90
54518;DHT22;40423;53.176;6.002;2022-07-29T12:25:59;20.20;99.90
54518;DHT22;40423;53.176;6.002;2022-07-29T12:28:25;20.30;99.90
54518;DHT22;40423;53.176;6.002;2022-07-29T12:30:51;20.30;99.90
54518;DHT22;40423;53.176;6.002;2022-07-29T12:35:54;20.70;99.90
54518;DHT22;40423;53.176;6.002;2022-07-29T12:38:21;20.90;99.60
54518;DHT22;40423;53.176;6.002;2022-07-29T12:40:48;21.00;99.40
54518;DHT22;40423;53.176;6.002;2022-07-29T12:43:16;21.10;99.60
54518;DHT22;40423;53.176;6.002;2022-07-29T12:45:48;21.30;98.90
54518;DHT22;40423;53.176;6.002;2022-07-29T12:48:15;21.40;98.50
54518;DHT22;40423;53.176;6.002;2022-07-29T12:50:59;21.60;98.80
54518;DHT22;40423;53.176;6.002;2022-07-29T12:53:27;22.00;98.30
54518;DHT22;40423;53.176;6.002;2022-07-29T12:55:55;22.30;98.30
54518;DHT22;40423;53.176;6.002;2022-07-29T13:01:16;22.90;97.50
54518;DHT22;40423;53.176;6.002;2022-07-29T13:03:54;23.00;97.10
54518;DHT22;40423;53.176;6.002;2022-07-29T13:11:35;23.00;97.40
54518;DHT22;40423;53.176;6.002;2022-07-29T13:14:01;22.90;97.10
54518;DHT22;40423;53.176;6.002;2022-07-29T13:16:27;23.00;97.60
54518;DHT22;40423;53.176;6.002;2022-07-29T13:19:07;23.00;97.50
54518;DHT22;40423;53.176;6.002;2022-07-29T13:21:33;23.00;97.00
54518;DHT22;40423;53.176;6.002;2022-07-29T13:23:59;23.10;97.60
54518;DHT22;40423;53.176;6.002;2022-07-29T13:26:25;23.10;97.00
54518;DHT22;40423;53.176;6.002;2022-07-29T13:28:50;23.00;96.70
54518;DHT22;40423;53.176;6.002;2022-07-29T13:31:16;23.10;96.50
54518;DHT22;40423;53.176;6.002;2022-07-29T13:33:42;23.10;96.20
54518;DHT22;40423;53.176;6.002;2022-07-29T13:36:07;23.20;95.70
54518;DHT22;40423;53.176;6.002;2022-07-29T13:38:33;23.10;96.00
54518;DHT22;40423;53.176;6.002;2022-07-29T13:40:59;23.20;96.00
54518;DHT22;40423;53.176;6.002;2022-07-29T13:43:25;23.20;95.60
54518;DHT22;40423;53.176;6.002;2022-07-29T13:45:51;23.20;96.20
54518;DHT22;40423;53.176;6.002;2022-07-29T13:48:17;23.30;96.40
54518;DHT22;40423;53.176;6.002;2022-07-29T13:50:43;23.40;96.10
54518;DHT22;40423;53.176;6.002;2022-07-29T13:53:09;23.40;96.10
54518;DHT22;40423;53.176;6.002;2022-07-29T13:55:35;23.50;95.50
54518;DHT22;40423;53.176;6.002;2022-07-29T13:58:00;23.40;95.20
54518;DHT22;40423;53.176;6.002;2022-07-29T14:00:26;23.40;95.10
54518;DHT22;40423;53.176;6.002;2022-07-29T14:02:52;23.50;94.80
54518;DHT22;40423;53.176;6.002;2022-07-29T14:05:18;23.40;94.50
54518;DHT22;40423;53.176;6.002;2022-07-29T14:07:44;23.40;94.50
54518;DHT22;40423;53.176;6.002;2022-07-29T14:10:09;23.50;94.80
54518;DHT22;40423;53.176;6.002;2022-07-29T14:12:35;23.50;94.80
54518;DHT22;40423;53.176;6.002;2022-07-29T14:15:01;23.50;94.50
54518;DHT22;40423;53.176;6.002;2022-07-29T14:17:27;23.50;94.50
54518;DHT22;40423;53.176;6.002;2022-07-29T14:19:52;23.50;94.50
54518;DHT22;40423;53.176;6.002;2022-07-29T14:22:18;23.60;95.00
54518;DHT22;40423;53.176;6.002;2022-07-29T14:24:44;23.70;95.30
54518;DHT22;40423;53.176;6.002;2022-07-29T14:27:10;23.80;94.90
54518;DHT22;40423;53.176;6.002;2022-07-29T14:29:36;23.90;95.10
54518;DHT22;40423;53.176;6.002;2022-07-29T14:32:02;24.00;94.40
54518;DHT22;40423;53.176;6.002;2022-07-29T14:34:28;24.10;93.90
54518;DHT22;40423;53.176;6.002;2022-07-29T14:36:54;24.10;94.10
54518;DHT22;40423;53.176;6.002;2022-07-29T14:39:22;24.20;94.10
54518;DHT22;40423;53.176;6.002;2022-07-29T14:41:50;24.20;94.30
54518;DHT22;40423;53.176;6.002;2022-07-29T14:44:17;24.30;93.90
54518;DHT22;40423;53.176;6.002;2022-07-29T14:46:43;24.30;94.30
54518;DHT22;40423;53.176;6.002;2022-07-29T14:49:09;24.50;94.30
54518;DHT22;40423;53.176;6.002;2022-07-29T14:51:35;24.60;93.60
54518;DHT22;40423;53.176;6.002;2022-07-29T14:54:01;24.60;93.40
54518;DHT22;40423;53.176;6.002;2022-07-29T14:56:26;24.70;93.60
54518;DHT22;40423;53.176;6.002;2022-07-29T14:58:55;24.70;93.30
54518;DHT22;40423;53.176;6.002;2022-07-29T15:01:21;24.70;93.10
54518;DHT22;40423;53.176;6.002;2022-07-29T15:03:47;24.70;93.00
54518;DHT22;40423;53.176;6.002;2022-07-29T15:06:13;24.60;92.90
54518;DHT22;40423;53.176;6.002;2022-07-29T15:08:38;24.50;93.20
54518;DHT22;40423;53.176;6.002;2022-07-29T15:11:04;24.50;93.10
54518;DHT22;40423;53.176;6.002;2022-07-29T15:13:30;24.50;93.20
54518;DHT22;40423;53.176;6.002;2022-07-29T15:15:55;24.40;93.00
54518;DHT22;40423;53.176;6.002;2022-07-29T15:18:21;24.40;93.00
54518;DHT22;40423;53.176;6.002;2022-07-29T15:20:47;24.30;92.70
54518;DHT22;40423;53.176;6.002;2022-07-29T15:23:12;24.30;93.10
54518;DHT22;40423;53.176;6.002;2022-07-29T15:25:41;24.30;93.50
54518;DHT22;40423;53.176;6.002;2022-07-29T15:28:07;24.30;92.80
54518;DHT22;40423;53.176;6.002;2022-07-29T15:30:34;24.30;93.00
54518;DHT22;40423;53.176;6.002;2022-07-29T15:33:02;24.20;93.20
54518;DHT22;40423;53.176;6.002;2022-07-29T15:35:28;24.20;93.00
54518;DHT22;40423;53.176;6.002;2022-07-29T15:37:54;24.20;93.40
54518;DHT22;40423;53.176;6.002;2022-07-29T15:40:20;24.30;92.90
54518;DHT22;40423;53.176;6.002;2022-07-29T15:42:45;24.30;93.00
54518;DHT22;40423;53.176;6.002;2022-07-29T15:45:11;24.40;93.20
54518;DHT22;40423;53.176;6.002;2022-07-29T15:47:37;24.40;92.70
54518;DHT22;40423;53.176;6.002;2022-07-29T15:50:03;24.30;92.10
54518;DHT22;40423;53.176;6.002;2022-07-29T15:52:28;24.20;92.40
54518;DHT22;40423;53.176;6.002;2022-07-29T15:54:55;24.20;92.50
54518;DHT22;40423;53.176;6.002;2022-07-29T15:57:22;24.20;92.80
54518;DHT22;40423;53.176;6.002;2022-07-29T15:59:49;24.20;92.40
54518;DHT22;40423;53.176;6.002;2022-07-29T16:02:15;24.10;91.80
54518;DHT22;40423;53.176;6.002;2022-07-29T16:04:42;24.10;92.00
54518;DHT22;40423;53.176;6.002;2022-07-29T16:07:07;24.00;92.30
54518;DHT22;40423;53.176;6.002;2022-07-29T16:09:33;24.00;92.40
54518;DHT22;40423;53.176;6.002;2022-07-29T16:11:59;24.10;92.20
54518;DHT22;40423;53.176;6.002;2022-07-29T16:14:25;24.10;92.00
54518;DHT22;40423;53.176;6.002;2022-07-29T16:16:51;24.00;91.70
54518;DHT22;40423;53.176;6.002;2022-07-29T16:19:16;23.90;91.70
54518;DHT22;40423;53.176;6.002;2022-07-29T16:21:42;23.90;91.80
54518;DHT22;40423;53.176;6.002;2022-07-29T16:24:08;23.90;92.00
54518;DHT22;40423;53.176;6.002;2022-07-29T16:26:34;23.90;92.10
54518;DHT22;40423;53.176;6.002;2022-07-29T16:29:00;23.90;92.30
54518;DHT22;40423;53.176;6.002;2022-07-29T16:31:25;23.90;92.20
54518;DHT22;40423;53.176;6.002;2022-07-29T16:33:52;23.90;92.10
54518;DHT22;40423;53.176;6.002;2022-07-29T16:36:18;23.90;92.20
54518;DHT22;40423;53.176;6.002;2022-07-29T16:38:44;23.90;92.10
54518;DHT22;40423;53.176;6.002;2022-07-29T16:41:11;23.90;91.60
54518;DHT22;40423;53.176;6.002;2022-07-29T16:43:37;23.90;91.90
54518;DHT22;40423;53.176;6.002;2022-07-29T16:46:02;24.00;91.50
54518;DHT22;40423;53.176;6.002;2022-07-29T16:48:28;23.90;91.00
54518;DHT22;40423;53.176;6.002;2022-07-29T16:50:54;23.90;91.20
54518;DHT22;40423;53.176;6.002;2022-07-29T16:53:20;23.90;91.50
54518;DHT22;40423;53.176;6.002;2022-07-29T16:55:46;23.90;91.50
54518;DHT22;40423;53.176;6.002;2022-07-29T16:58:12;23.90;91.60
54518;DHT22;40423;53.176;6.002;2022-07-29T17:00:38;24.00;91.90